Hooper Bay 's weather forecast for the week

Aktuelles Wetter in Hooper Bay

Wetter

Teilweise bewölkt
Bewölkung 17%

Temperatur

42°F
Minimum 35°F
Maximum 42°F

Wind

2 mph
Windböen 35 mph

Feuchtigeit

71%
Taupunkt 33°F
Temperatur Fühlt sich Niederschlag Feuchtigkeit
00:00am Teilweise bewölkt 37°F 31°F 0 mm 86%
03:00am Teilweise bewölkt 37°F 32°F 0 mm 87%
06:00am Teilweise bewölkt 41°F 29°F 0 mm 88%
09:00am Teilweise bewölkt 37°F 31°F 0 mm 81%
12:00pm Teilweise bewölkt 40°F 33°F 0 mm 74%
15:00pm Teilweise bewölkt 42°F 34°F 0 mm 71%
18:00pm Teilweise bewölkt 41°F 33°F 0 mm 72%
21:00pm Teilweise bewölkt 39°F 29°F 0 mm 77%
Temperatur Fühlt sich Niederschlag Feuchtigkeit
00:00am Bewölkt 38°F 28°F 0 mm 78%
03:00am Teilweise bewölkt 39°F 30°F 0 mm 77%
06:00am Leichter Nieselregen 39°F 32°F 0.4 mm 82%
09:00am Leichtes Gewitter möglich 42°F 36°F 0.1 mm 75%
12:00pm Zeitweise mäßiger Regen 47°F 43°F 0.5 mm 72%
15:00pm Teilweise bewölkt 49°F 46°F 0 mm 67%
18:00pm Bewölkt 49°F 46°F 0 mm 66%
21:00pm Teilweise bewölkt 47°F 43°F 0 mm 69%
Temperatur Fühlt sich Niederschlag Feuchtigkeit
00:00am Teilweise bewölkt 44°F 41°F 0 mm 69%
03:00am Teilweise bewölkt 38°F 38°F 0 mm 72%
06:00am Teilweise bewölkt 38°F 33°F 0 mm 78%
09:00am Teilweise bewölkt 38°F 31°F 0 mm 81%
12:00pm Teilweise bewölkt 39°F 31°F 0 mm 81%
15:00pm Teilweise bewölkt 39°F 31°F 0 mm 81%
18:00pm Teilweise bewölkt 38°F 31°F 0 mm 83%
21:00pm Teilweise bewölkt 37°F 29°F 0 mm 85%
Temperatur Fühlt sich Niederschlag Feuchtigkeit
00:00am Teilweise bewölkt 35°F 28°F 0 mm 86%
03:00am Teilweise bewölkt 37°F 28°F 0 mm 86%
06:00am Bewölkt 39°F 27°F 0 mm 88%
09:00am Bedeckt 37°F 28°F 0 mm 86%
12:00pm Teilweise bewölkt 38°F 31°F 0 mm 82%
15:00pm Teilweise bewölkt 40°F 31°F 0 mm 80%
18:00pm Teilweise bewölkt 39°F 31°F 0 mm 82%
21:00pm Teilweise bewölkt 38°F 29°F 0 mm 85%
Temperatur Fühlt sich Niederschlag Feuchtigkeit
00:00am Teilweise bewölkt 37°F 27°F 0 mm 90%
03:00am Teilweise bewölkt 41°F 28°F 0 mm 87%
06:00am Teilweise bewölkt 46°F 29°F 0 mm 88%
09:00am Teilweise bewölkt 41°F 37°F 0 mm 80%
12:00pm Teilweise bewölkt 45°F 42°F 0 mm 72%
15:00pm Bewölkt 46°F 44°F 0 mm 71%
18:00pm Bedeckt 46°F 46°F 0 mm 76%
21:00pm Bewölkt 46°F 44°F 0 mm 74%
Temperatur Fühlt sich Niederschlag Feuchtigkeit
00:00am Teilweise bewölkt 47°F 42°F 0 mm 78%
03:00am Bewölkt 44°F 40°F 0 mm 82%
06:00am Teilweise bewölkt 47°F 40°F 0 mm 82%
09:00am Teilweise bewölkt 44°F 43°F 0 mm 79%
12:00pm Bewölkt 46°F 46°F 0 mm 74%
15:00pm Teilweise bewölkt 49°F 45°F 0 mm 68%
18:00pm Bedeckt 47°F 41°F 0 mm 73%
21:00pm Bewölkt 45°F 39°F 0 mm 78%
Temperatur Fühlt sich Niederschlag Feuchtigkeit
00:00am Bedeckt 44°F 38°F 0 mm 80%
03:00am Teilweise bewölkt 43°F 37°F 0 mm 83%
06:00am Bewölkt 47°F 37°F 0 mm 82%
09:00am Teilweise bewölkt 43°F 39°F 0 mm 78%
12:00pm Teilweise bewölkt 44°F 42°F 0 mm 78%
15:00pm Bewölkt 46°F 44°F 0 mm 77%
18:00pm Bewölkt 47°F 44°F 0 mm 75%
21:00pm Teilweise bewölkt 47°F 43°F 0 mm 73%

Speichern Sie Ihre Lieblingsorte, erhalten Sie noch mehr Gezeiteninformationen, weniger Werbung und mehr ...

Loggen Sie sich mit Ihrem Facebook-Konto bei Tidechart mit einem Klick ein (KOSTENLOS!)